sensor_id;sensor_type;location;lat;lon;timestamp;P1;durP1;ratioP1;P2;durP2;ratioP2
4309;SDS011;2168;53.576;9.980;2023-05-07T00:00:33;0.20;;;0.20;;
4309;SDS011;2168;53.576;9.980;2023-05-07T00:02:59;0.30;;;0.30;;
4309;SDS011;2168;53.576;9.980;2023-05-07T00:05:24;0.20;;;0.20;;
4309;SDS011;2168;53.576;9.980;2023-05-07T00:07:49;0.27;;;0.27;;
4309;SDS011;2168;53.576;9.980;2023-05-07T00:10:15;0.20;;;0.20;;
4309;SDS011;2168;53.576;9.980;2023-05-07T00:12:40;0.30;;;0.30;;
4309;SDS011;2168;53.576;9.980;2023-05-07T00:15:06;0.20;;;0.20;;
4309;SDS011;2168;53.576;9.980;2023-05-07T00:17:32;0.20;;;0.20;;
4309;SDS011;2168;53.576;9.980;2023-05-07T00:19:57;0.20;;;0.20;;
4309;SDS011;2168;53.576;9.980;2023-05-07T00:22:22;0.23;;;0.23;;
4309;SDS011;2168;53.576;9.980;2023-05-07T00:24:48;0.30;;;0.30;;
4309;SDS011;2168;53.576;9.980;2023-05-07T00:27:13;0.30;;;0.30;;
4309;SDS011;2168;53.576;9.980;2023-05-07T00:29:38;0.30;;;0.30;;
4309;SDS011;2168;53.576;9.980;2023-05-07T00:32:03;0.20;;;0.20;;
4309;SDS011;2168;53.576;9.980;2023-05-07T00:34:29;0.30;;;0.30;;
4309;SDS011;2168;53.576;9.980;2023-05-07T00:36:54;0.30;;;0.30;;
4309;SDS011;2168;53.576;9.980;2023-05-07T00:39:19;0.30;;;0.30;;
4309;SDS011;2168;53.576;9.980;2023-05-07T00:41:45;0.23;;;0.23;;
4309;SDS011;2168;53.576;9.980;2023-05-07T00:44:11;0.20;;;0.20;;
4309;SDS011;2168;53.576;9.980;2023-05-07T00:46:36;0.20;;;0.20;;
4309;SDS011;2168;53.576;9.980;2023-05-07T00:49:01;0.30;;;0.30;;
4309;SDS011;2168;53.576;9.980;2023-05-07T00:51:26;0.30;;;0.30;;
4309;SDS011;2168;53.576;9.980;2023-05-07T00:53:52;0.30;;;0.30;;
4309;SDS011;2168;53.576;9.980;2023-05-07T00:56:17;0.30;;;0.30;;
4309;SDS011;2168;53.576;9.980;2023-05-07T00:58:43;0.30;;;0.30;;
4309;SDS011;2168;53.576;9.980;2023-05-07T01:01:08;0.20;;;0.20;;
4309;SDS011;2168;53.576;9.980;2023-05-07T01:03:33;0.30;;;0.30;;
4309;SDS011;2168;53.576;9.980;2023-05-07T01:05:59;0.20;;;0.20;;
4309;SDS011;2168;53.576;9.980;2023-05-07T01:08:24;0.30;;;0.30;;
4309;SDS011;2168;53.576;9.980;2023-05-07T01:10:51;0.30;;;0.30;;
4309;SDS011;2168;53.576;9.980;2023-05-07T01:13:17;0.27;;;0.27;;
4309;SDS011;2168;53.576;9.980;2023-05-07T01:15:43;0.30;;;0.30;;
4309;SDS011;2168;53.576;9.980;2023-05-07T01:18:08;0.30;;;0.30;;
4309;SDS011;2168;53.576;9.980;2023-05-07T01:20:33;0.30;;;0.30;;
4309;SDS011;2168;53.576;9.980;2023-05-07T01:22:59;0.30;;;0.30;;
4309;SDS011;2168;53.576;9.980;2023-05-07T01:25:25;0.20;;;0.20;;
4309;SDS011;2168;53.576;9.980;2023-05-07T01:27:50;0.20;;;0.20;;
4309;SDS011;2168;53.576;9.980;2023-05-07T01:30:16;0.30;;;0.30;;
4309;SDS011;2168;53.576;9.980;2023-05-07T01:32:52;0.20;;;0.20;;
4309;SDS011;2168;53.576;9.980;2023-05-07T01:35:19;0.30;;;0.30;;
4309;SDS011;2168;53.576;9.980;2023-05-07T01:37:45;0.20;;;0.20;;
4309;SDS011;2168;53.576;9.980;2023-05-07T01:40:11;0.30;;;0.30;;
4309;SDS011;2168;53.576;9.980;2023-05-07T01:42:36;0.30;;;0.30;;
4309;SDS011;2168;53.576;9.980;2023-05-07T01:45:02;0.30;;;0.30;;
4309;SDS011;2168;53.576;9.980;2023-05-07T01:47:27;0.30;;;0.30;;
4309;SDS011;2168;53.576;9.980;2023-05-07T01:49:53;0.30;;;0.30;;
4309;SDS011;2168;53.576;9.980;2023-05-07T01:52:18;0.27;;;0.27;;
4309;SDS011;2168;53.576;9.980;2023-05-07T01:54:44;0.30;;;0.30;;
4309;SDS011;2168;53.576;9.980;2023-05-07T01:57:09;0.30;;;0.30;;
4309;SDS011;2168;53.576;9.980;2023-05-07T01:59:35;0.30;;;0.30;;
4309;SDS011;2168;53.576;9.980;2023-05-07T02:02:00;0.30;;;0.30;;
4309;SDS011;2168;53.576;9.980;2023-05-07T02:04:25;0.30;;;0.30;;
4309;SDS011;2168;53.576;9.980;2023-05-07T02:06:50;0.30;;;0.30;;
4309;SDS011;2168;53.576;9.980;2023-05-07T02:09:16;0.30;;;0.30;;
4309;SDS011;2168;53.576;9.980;2023-05-07T02:11:41;0.30;;;0.30;;
4309;SDS011;2168;53.576;9.980;2023-05-07T02:14:06;0.30;;;0.30;;
4309;SDS011;2168;53.576;9.980;2023-05-07T02:16:31;0.30;;;0.30;;
4309;SDS011;2168;53.576;9.980;2023-05-07T02:18:57;0.20;;;0.20;;
4309;SDS011;2168;53.576;9.980;2023-05-07T02:21:23;0.30;;;0.30;;
4309;SDS011;2168;53.576;9.980;2023-05-07T02:23:48;0.30;;;0.30;;
4309;SDS011;2168;53.576;9.980;2023-05-07T02:26:13;0.30;;;0.30;;
4309;SDS011;2168;53.576;9.980;2023-05-07T02:28:38;0.27;;;0.27;;
4309;SDS011;2168;53.576;9.980;2023-05-07T02:31:03;0.20;;;0.20;;
4309;SDS011;2168;53.576;9.980;2023-05-07T02:33:29;0.20;;;0.20;;
4309;SDS011;2168;53.576;9.980;2023-05-07T02:35:54;0.30;;;0.30;;
4309;SDS011;2168;53.576;9.980;2023-05-07T02:38:20;0.30;;;0.30;;
4309;SDS011;2168;53.576;9.980;2023-05-07T02:40:45;0.30;;;0.30;;
4309;SDS011;2168;53.576;9.980;2023-05-07T02:43:10;0.23;;;0.23;;
4309;SDS011;2168;53.576;9.980;2023-05-07T02:45:35;0.20;;;0.20;;
4309;SDS011;2168;53.576;9.980;2023-05-07T02:48:04;0.20;;;0.20;;
4309;SDS011;2168;53.576;9.980;2023-05-07T02:50:30;0.30;;;0.30;;
4309;SDS011;2168;53.576;9.980;2023-05-07T02:52:55;0.30;;;0.30;;
4309;SDS011;2168;53.576;9.980;2023-05-07T02:55:20;0.20;;;0.20;;
4309;SDS011;2168;53.576;9.980;2023-05-07T02:57:46;0.20;;;0.20;;
4309;SDS011;2168;53.576;9.980;2023-05-07T03:00:15;0.20;;;0.20;;
4309;SDS011;2168;53.576;9.980;2023-05-07T03:02:40;0.30;;;0.30;;
4309;SDS011;2168;53.576;9.980;2023-05-07T03:05:06;0.20;;;0.20;;
4309;SDS011;2168;53.576;9.980;2023-05-07T03:07:31;0.27;;;0.27;;
4309;SDS011;2168;53.576;9.980;2023-05-07T03:09:56;0.30;;;0.30;;
4309;SDS011;2168;53.576;9.980;2023-05-07T03:12:22;0.30;;;0.30;;
4309;SDS011;2168;53.576;9.980;2023-05-07T03:14:47;0.30;;;0.30;;
4309;SDS011;2168;53.576;9.980;2023-05-07T03:17:12;0.30;;;0.30;;
4309;SDS011;2168;53.576;9.980;2023-05-07T03:19:37;0.30;;;0.30;;
4309;SDS011;2168;53.576;9.980;2023-05-07T03:22:02;0.30;;;0.30;;
4309;SDS011;2168;53.576;9.980;2023-05-07T03:24:27;0.23;;;0.23;;
4309;SDS011;2168;53.576;9.980;2023-05-07T03:26:53;0.30;;;0.30;;
4309;SDS011;2168;53.576;9.980;2023-05-07T03:29:18;0.30;;;0.30;;
4309;SDS011;2168;53.576;9.980;2023-05-07T03:31:43;0.30;;;0.30;;
4309;SDS011;2168;53.576;9.980;2023-05-07T03:34:08;0.23;;;0.23;;
4309;SDS011;2168;53.576;9.980;2023-05-07T03:36:33;0.20;;;0.20;;
4309;SDS011;2168;53.576;9.980;2023-05-07T03:38:59;0.30;;;0.30;;
4309;SDS011;2168;53.576;9.980;2023-05-07T03:41:24;0.30;;;0.30;;
4309;SDS011;2168;53.576;9.980;2023-05-07T03:43:50;0.30;;;0.30;;
4309;SDS011;2168;53.576;9.980;2023-05-07T03:46:15;0.20;;;0.20;;
4309;SDS011;2168;53.576;9.980;2023-05-07T03:48:40;0.20;;;0.20;;
4309;SDS011;2168;53.576;9.980;2023-05-07T03:51:06;0.30;;;0.30;;
4309;SDS011;2168;53.576;9.980;2023-05-07T03:53:31;0.30;;;0.30;;
4309;SDS011;2168;53.576;9.980;2023-05-07T03:55:56;0.30;;;0.30;;
4309;SDS011;2168;53.576;9.980;2023-05-07T03:58:21;0.20;;;0.20;;
4309;SDS011;2168;53.576;9.980;2023-05-07T04:00:46;0.30;;;0.30;;
4309;SDS011;2168;53.576;9.980;2023-05-07T04:03:12;0.30;;;0.30;;
4309;SDS011;2168;53.576;9.980;2023-05-07T04:05:37;0.30;;;0.30;;
4309;SDS011;2168;53.576;9.980;2023-05-07T04:08:02;0.20;;;0.20;;
4309;SDS011;2168;53.576;9.980;2023-05-07T04:10:29;0.20;;;0.20;;
4309;SDS011;2168;53.576;9.980;2023-05-07T04:12:54;0.30;;;0.30;;
4309;SDS011;2168;53.576;9.980;2023-05-07T04:15:19;0.27;;;0.27;;
4309;SDS011;2168;53.576;9.980;2023-05-07T04:17:44;0.20;;;0.20;;
4309;SDS011;2168;53.576;9.980;2023-05-07T04:20:10;0.30;;;0.30;;
4309;SDS011;2168;53.576;9.980;2023-05-07T04:22:36;0.30;;;0.30;;
4309;SDS011;2168;53.576;9.980;2023-05-07T04:25:01;0.20;;;0.20;;
4309;SDS011;2168;53.576;9.980;2023-05-07T04:27:27;0.30;;;0.30;;
4309;SDS011;2168;53.576;9.980;2023-05-07T04:29:53;0.30;;;0.30;;
4309;SDS011;2168;53.576;9.980;2023-05-07T04:32:20;0.30;;;0.30;;
4309;SDS011;2168;53.576;9.980;2023-05-07T04:34:45;0.30;;;0.30;;
4309;SDS011;2168;53.576;9.980;2023-05-07T04:37:11;0.30;;;0.30;;
4309;SDS011;2168;53.576;9.980;2023-05-07T04:39:36;0.30;;;0.30;;
4309;SDS011;2168;53.576;9.980;2023-05-07T04:42:01;0.20;;;0.20;;
4309;SDS011;2168;53.576;9.980;2023-05-07T04:44:26;0.20;;;0.20;;
4309;SDS011;2168;53.576;9.980;2023-05-07T04:46:52;0.20;;;0.20;;
4309;SDS011;2168;53.576;9.980;2023-05-07T04:49:17;0.30;;;0.30;;
4309;SDS011;2168;53.576;9.980;2023-05-07T04:51:42;0.20;;;0.20;;
4309;SDS011;2168;53.576;9.980;2023-05-07T04:54:08;0.30;;;0.30;;
4309;SDS011;2168;53.576;9.980;2023-05-07T04:56:33;0.30;;;0.30;;
4309;SDS011;2168;53.576;9.980;2023-05-07T04:58:58;0.20;;;0.20;;
4309;SDS011;2168;53.576;9.980;2023-05-07T05:01:23;0.20;;;0.20;;
4309;SDS011;2168;53.576;9.980;2023-05-07T05:03:49;0.30;;;0.30;;
4309;SDS011;2168;53.576;9.980;2023-05-07T05:06:14;0.20;;;0.20;;
4309;SDS011;2168;53.576;9.980;2023-05-07T05:08:39;0.40;;;0.40;;
4309;SDS011;2168;53.576;9.980;2023-05-07T05:11:04;0.30;;;0.30;;
4309;SDS011;2168;53.576;9.980;2023-05-07T05:13:30;0.27;;;0.27;;
4309;SDS011;2168;53.576;9.980;2023-05-07T05:15:55;0.20;;;0.20;;
4309;SDS011;2168;53.576;9.980;2023-05-07T05:18:20;0.30;;;0.30;;
4309;SDS011;2168;53.576;9.980;2023-05-07T05:20:46;0.20;;;0.20;;
4309;SDS011;2168;53.576;9.980;2023-05-07T05:23:11;0.30;;;0.30;;
4309;SDS011;2168;53.576;9.980;2023-05-07T05:25:36;0.30;;;0.30;;
4309;SDS011;2168;53.576;9.980;2023-05-07T05:28:02;0.20;;;0.20;;
4309;SDS011;2168;53.576;9.980;2023-05-07T05:30:27;0.30;;;0.30;;
4309;SDS011;2168;53.576;9.980;2023-05-07T05:32:52;0.20;;;0.20;;
4309;SDS011;2168;53.576;9.980;2023-05-07T05:35:18;0.30;;;0.30;;
4309;SDS011;2168;53.576;9.980;2023-05-07T05:37:43;0.30;;;0.30;;
4309;SDS011;2168;53.576;9.980;2023-05-07T05:40:08;0.30;;;0.30;;
4309;SDS011;2168;53.576;9.980;2023-05-07T05:42:33;0.30;;;0.30;;
4309;SDS011;2168;53.576;9.980;2023-05-07T05:44:58;0.20;;;0.20;;
4309;SDS011;2168;53.576;9.980;2023-05-07T05:47:24;0.20;;;0.20;;
4309;SDS011;2168;53.576;9.980;2023-05-07T05:49:49;0.30;;;0.30;;
4309;SDS011;2168;53.576;9.980;2023-05-07T05:52:14;0.20;;;0.20;;
4309;SDS011;2168;53.576;9.980;2023-05-07T05:54:39;0.20;;;0.20;;
4309;SDS011;2168;53.576;9.980;2023-05-07T05:57:05;0.20;;;0.20;;
4309;SDS011;2168;53.576;9.980;2023-05-07T05:59:30;0.20;;;0.20;;
4309;SDS011;2168;53.576;9.980;2023-05-07T06:01:56;0.27;;;0.27;;
4309;SDS011;2168;53.576;9.980;2023-05-07T06:04:21;0.30;;;0.30;;
4309;SDS011;2168;53.576;9.980;2023-05-07T06:06:46;0.30;;;0.30;;
4309;SDS011;2168;53.576;9.980;2023-05-07T06:09:11;0.20;;;0.20;;
4309;SDS011;2168;53.576;9.980;2023-05-07T06:11:37;0.20;;;0.20;;
4309;SDS011;2168;53.576;9.980;2023-05-07T06:14:02;0.30;;;0.30;;
4309;SDS011;2168;53.576;9.980;2023-05-07T06:16:27;0.30;;;0.30;;
4309;SDS011;2168;53.576;9.980;2023-05-07T06:18:52;0.30;;;0.30;;
4309;SDS011;2168;53.576;9.980;2023-05-07T06:21:18;0.30;;;0.30;;
4309;SDS011;2168;53.576;9.980;2023-05-07T06:23:43;0.30;;;0.30;;
4309;SDS011;2168;53.576;9.980;2023-05-07T06:26:08;0.30;;;0.30;;
4309;SDS011;2168;53.576;9.980;2023-05-07T06:28:33;0.23;;;0.23;;
4309;SDS011;2168;53.576;9.980;2023-05-07T06:31:11;0.20;;;0.20;;
4309;SDS011;2168;53.576;9.980;2023-05-07T06:33:36;0.30;;;0.30;;
4309;SDS011;2168;53.576;9.980;2023-05-07T06:36:01;0.20;;;0.20;;
4309;SDS011;2168;53.576;9.980;2023-05-07T06:38:26;0.20;;;0.20;;
4309;SDS011;2168;53.576;9.980;2023-05-07T06:40:51;0.20;;;0.20;;
4309;SDS011;2168;53.576;9.980;2023-05-07T06:43:17;0.30;;;0.30;;
4309;SDS011;2168;53.576;9.980;2023-05-07T06:45:42;0.30;;;0.30;;
4309;SDS011;2168;53.576;9.980;2023-05-07T06:48:07;0.30;;;0.30;;
4309;SDS011;2168;53.576;9.980;2023-05-07T06:50:32;0.30;;;0.30;;
4309;SDS011;2168;53.576;9.980;2023-05-07T06:52:58;0.30;;;0.30;;
4309;SDS011;2168;53.576;9.980;2023-05-07T06:55:23;0.20;;;0.20;;
4309;SDS011;2168;53.576;9.980;2023-05-07T06:57:48;0.27;;;0.27;;
4309;SDS011;2168;53.576;9.980;2023-05-07T07:00:13;0.30;;;0.30;;
4309;SDS011;2168;53.576;9.980;2023-05-07T07:02:39;0.27;;;0.27;;
4309;SDS011;2168;53.576;9.980;2023-05-07T07:05:04;0.20;;;0.20;;
4309;SDS011;2168;53.576;9.980;2023-05-07T07:07:29;0.20;;;0.20;;
4309;SDS011;2168;53.576;9.980;2023-05-07T07:09:55;0.30;;;0.30;;
4309;SDS011;2168;53.576;9.980;2023-05-07T07:12:20;0.30;;;0.30;;
4309;SDS011;2168;53.576;9.980;2023-05-07T07:14:45;0.30;;;0.30;;
4309;SDS011;2168;53.576;9.980;2023-05-07T07:17:11;0.20;;;0.20;;
4309;SDS011;2168;53.576;9.980;2023-05-07T07:19:36;0.20;;;0.20;;
4309;SDS011;2168;53.576;9.980;2023-05-07T07:22:02;0.20;;;0.20;;
4309;SDS011;2168;53.576;9.980;2023-05-07T07:24:27;0.30;;;0.30;;
4309;SDS011;2168;53.576;9.980;2023-05-07T07:26:52;0.30;;;0.30;;
4309;SDS011;2168;53.576;9.980;2023-05-07T07:29:20;0.30;;;0.30;;
4309;SDS011;2168;53.576;9.980;2023-05-07T07:31:45;0.30;;;0.30;;
4309;SDS011;2168;53.576;9.980;2023-05-07T07:34:10;0.30;;;0.30;;
4309;SDS011;2168;53.576;9.980;2023-05-07T07:36:36;0.30;;;0.30;;
4309;SDS011;2168;53.576;9.980;2023-05-07T07:39:01;0.30;;;0.30;;
4309;SDS011;2168;53.576;9.980;2023-05-07T07:41:26;0.30;;;0.30;;
4309;SDS011;2168;53.576;9.980;2023-05-07T07:43:52;0.30;;;0.30;;
4309;SDS011;2168;53.576;9.980;2023-05-07T07:46:17;0.30;;;0.30;;
4309;SDS011;2168;53.576;9.980;2023-05-07T07:48:42;0.30;;;0.30;;
4309;SDS011;2168;53.576;9.980;2023-05-07T07:51:07;0.20;;;0.20;;
4309;SDS011;2168;53.576;9.980;2023-05-07T07:53:32;0.30;;;0.30;;
4309;SDS011;2168;53.576;9.980;2023-05-07T07:55:57;0.30;;;0.30;;
4309;SDS011;2168;53.576;9.980;2023-05-07T07:58:23;0.30;;;0.30;;
4309;SDS011;2168;53.576;9.980;2023-05-07T08:00:49;0.40;;;0.40;;
4309;SDS011;2168;53.576;9.980;2023-05-07T08:03:16;0.40;;;0.40;;
4309;SDS011;2168;53.576;9.980;2023-05-07T08:05:41;0.30;;;0.30;;
4309;SDS011;2168;53.576;9.980;2023-05-07T08:08:07;0.30;;;0.30;;
4309;SDS011;2168;53.576;9.980;2023-05-07T08:10:32;0.30;;;0.30;;
4309;SDS011;2168;53.576;9.980;2023-05-07T08:12:59;0.40;;;0.40;;
4309;SDS011;2168;53.576;9.980;2023-05-07T08:15:25;0.30;;;0.30;;
4309;SDS011;2168;53.576;9.980;2023-05-07T08:17:50;0.30;;;0.30;;
4309;SDS011;2168;53.576;9.980;2023-05-07T08:20:15;0.30;;;0.30;;
4309;SDS011;2168;53.576;9.980;2023-05-07T08:22:40;0.37;;;0.37;;
4309;SDS011;2168;53.576;9.980;2023-05-07T08:25:06;0.40;;;0.40;;
4309;SDS011;2168;53.576;9.980;2023-05-07T08:27:31;0.30;;;0.30;;
4309;SDS011;2168;53.576;9.980;2023-05-07T08:29:56;0.40;;;0.40;;
4309;SDS011;2168;53.576;9.980;2023-05-07T08:32:21;0.40;;;0.40;;
4309;SDS011;2168;53.576;9.980;2023-05-07T08:34:47;0.40;;;0.40;;
4309;SDS011;2168;53.576;9.980;2023-05-07T08:37:12;0.40;;;0.40;;
4309;SDS011;2168;53.576;9.980;2023-05-07T08:39:37;0.30;;;0.30;;
4309;SDS011;2168;53.576;9.980;2023-05-07T08:42:03;0.40;;;0.40;;
4309;SDS011;2168;53.576;9.980;2023-05-07T08:44:29;0.40;;;0.40;;
4309;SDS011;2168;53.576;9.980;2023-05-07T08:46:57;0.30;;;0.30;;
4309;SDS011;2168;53.576;9.980;2023-05-07T08:49:23;0.37;;;0.37;;
4309;SDS011;2168;53.576;9.980;2023-05-07T08:51:48;0.40;;;0.40;;
4309;SDS011;2168;53.576;9.980;2023-05-07T08:54:15;0.40;;;0.40;;
4309;SDS011;2168;53.576;9.980;2023-05-07T08:56:41;0.40;;;0.40;;
4309;SDS011;2168;53.576;9.980;2023-05-07T08:59:06;0.30;;;0.30;;
4309;SDS011;2168;53.576;9.980;2023-05-07T09:01:31;0.40;;;0.40;;
4309;SDS011;2168;53.576;9.980;2023-05-07T09:03:57;0.40;;;0.40;;
4309;SDS011;2168;53.576;9.980;2023-05-07T09:06:22;0.40;;;0.40;;
4309;SDS011;2168;53.576;9.980;2023-05-07T09:08:51;0.37;;;0.37;;
4309;SDS011;2168;53.576;9.980;2023-05-07T09:11:16;0.30;;;0.30;;
4309;SDS011;2168;53.576;9.980;2023-05-07T09:13:44;0.40;;;0.40;;
4309;SDS011;2168;53.576;9.980;2023-05-07T09:16:10;0.50;;;0.50;;
4309;SDS011;2168;53.576;9.980;2023-05-07T09:18:40;0.40;;;0.40;;
4309;SDS011;2168;53.576;9.980;2023-05-07T09:21:05;0.40;;;0.40;;
4309;SDS011;2168;53.576;9.980;2023-05-07T09:23:34;0.40;;;0.40;;
4309;SDS011;2168;53.576;9.980;2023-05-07T09:26:00;0.27;;;0.27;;
4309;SDS011;2168;53.576;9.980;2023-05-07T09:28:25;0.40;;;0.40;;
4309;SDS011;2168;53.576;9.980;2023-05-07T09:30:50;0.40;;;0.40;;
4309;SDS011;2168;53.576;9.980;2023-05-07T09:33:15;0.30;;;0.30;;
4309;SDS011;2168;53.576;9.980;2023-05-07T09:35:41;0.43;;;0.43;;
4309;SDS011;2168;53.576;9.980;2023-05-07T09:38:06;0.40;;;0.40;;
4309;SDS011;2168;53.576;9.980;2023-05-07T09:40:32;0.40;;;0.40;;
4309;SDS011;2168;53.576;9.980;2023-05-07T09:43:08;0.33;;;0.33;;
4309;SDS011;2168;53.576;9.980;2023-05-07T09:45:33;0.40;;;0.40;;
4309;SDS011;2168;53.576;9.980;2023-05-07T09:47:59;0.30;;;0.30;;
4309;SDS011;2168;53.576;9.980;2023-05-07T09:50:29;0.47;;;0.47;;
4309;SDS011;2168;53.576;9.980;2023-05-07T09:52:55;0.40;;;0.40;;
4309;SDS011;2168;53.576;9.980;2023-05-07T09:55:20;0.50;;;0.50;;
4309;SDS011;2168;53.576;9.980;2023-05-07T09:57:46;0.50;;;0.50;;
4309;SDS011;2168;53.576;9.980;2023-05-07T10:00:12;0.50;;;0.50;;
4309;SDS011;2168;53.576;9.980;2023-05-07T10:02:37;0.60;;;0.60;;
4309;SDS011;2168;53.576;9.980;2023-05-07T10:05:11;0.50;;;0.50;;
4309;SDS011;2168;53.576;9.980;2023-05-07T10:07:36;0.50;;;0.50;;
4309;SDS011;2168;53.576;9.980;2023-05-07T10:10:01;0.50;;;0.50;;
4309;SDS011;2168;53.576;9.980;2023-05-07T10:12:27;0.60;;;0.60;;
4309;SDS011;2168;53.576;9.980;2023-05-07T10:14:52;0.60;;;0.60;;
4309;SDS011;2168;53.576;9.980;2023-05-07T10:17:19;0.50;;;0.50;;
4309;SDS011;2168;53.576;9.980;2023-05-07T10:19:45;0.50;;;0.50;;
4309;SDS011;2168;53.576;9.980;2023-05-07T10:22:10;0.50;;;0.50;;
4309;SDS011;2168;53.576;9.980;2023-05-07T10:24:36;0.60;;;0.60;;
4309;SDS011;2168;53.576;9.980;2023-05-07T10:27:04;0.60;;;0.60;;
4309;SDS011;2168;53.576;9.980;2023-05-07T10:29:35;0.60;;;0.60;;
4309;SDS011;2168;53.576;9.980;2023-05-07T10:34:28;0.50;;;0.50;;
4309;SDS011;2168;53.576;9.980;2023-05-07T10:36:54;0.50;;;0.50;;
4309;SDS011;2168;53.576;9.980;2023-05-07T10:39:21;0.40;;;0.40;;
4309;SDS011;2168;53.576;9.980;2023-05-07T10:41:47;0.47;;;0.47;;
4309;SDS011;2168;53.576;9.980;2023-05-07T10:44:24;0.50;;;0.50;;
4309;SDS011;2168;53.576;9.980;2023-05-07T10:47:03;0.50;;;0.50;;
4309;SDS011;2168;53.576;9.980;2023-05-07T10:49:29;0.50;;;0.50;;
4309;SDS011;2168;53.576;9.980;2023-05-07T10:52:10;0.50;;;0.50;;
4309;SDS011;2168;53.576;9.980;2023-05-07T10:54:36;0.50;;;0.50;;
4309;SDS011;2168;53.576;9.980;2023-05-07T10:57:31;0.40;;;0.40;;
4309;SDS011;2168;53.576;9.980;2023-05-07T10:59:46;0.60;;;0.60;;
4309;SDS011;2168;53.576;9.980;2023-05-07T11:02:11;0.50;;;0.50;;
4309;SDS011;2168;53.576;9.980;2023-05-07T11:04:39;0.60;;;0.60;;
4309;SDS011;2168;53.576;9.980;2023-05-07T11:12:15;0.60;;;0.60;;
4309;SDS011;2168;53.576;9.980;2023-05-07T11:17:07;0.77;;;0.77;;
4309;SDS011;2168;53.576;9.980;2023-05-07T11:19:51;0.80;;;0.80;;
4309;SDS011;2168;53.576;9.980;2023-05-07T11:25:01;0.70;;;0.70;;
4309;SDS011;2168;53.576;9.980;2023-05-07T11:27:26;0.70;;;0.70;;
4309;SDS011;2168;53.576;9.980;2023-05-07T11:29:52;0.70;;;0.70;;
4309;SDS011;2168;53.576;9.980;2023-05-07T11:32:24;0.70;;;0.70;;
4309;SDS011;2168;53.576;9.980;2023-05-07T11:34:57;0.77;;;0.77;;
4309;SDS011;2168;53.576;9.980;2023-05-07T11:37:23;0.80;;;0.80;;
4309;SDS011;2168;53.576;9.980;2023-05-07T11:39:49;0.70;;;0.70;;
4309;SDS011;2168;53.576;9.980;2023-05-07T11:42:27;0.90;;;0.90;;
4309;SDS011;2168;53.576;9.980;2023-05-07T11:44:53;0.80;;;0.80;;
4309;SDS011;2168;53.576;9.980;2023-05-07T11:47:18;1.00;;;1.00;;
4309;SDS011;2168;53.576;9.980;2023-05-07T11:49:45;0.87;;;0.87;;
4309;SDS011;2168;53.576;9.980;2023-05-07T11:52:11;0.90;;;0.90;;
4309;SDS011;2168;53.576;9.980;2023-05-07T11:54:37;1.00;;;1.00;;
4309;SDS011;2168;53.576;9.980;2023-05-07T11:57:03;1.10;;;1.10;;
4309;SDS011;2168;53.576;9.980;2023-05-07T11:59:28;1.10;;;1.10;;
4309;SDS011;2168;53.576;9.980;2023-05-07T12:01:56;1.10;;;1.10;;
4309;SDS011;2168;53.576;9.980;2023-05-07T12:04:22;1.30;;;1.30;;
4309;SDS011;2168;53.576;9.980;2023-05-07T12:06:47;1.10;;;1.10;;
4309;SDS011;2168;53.576;9.980;2023-05-07T12:09:12;1.03;;;1.03;;
4309;SDS011;2168;53.576;9.980;2023-05-07T12:11:38;1.10;;;1.10;;
4309;SDS011;2168;53.576;9.980;2023-05-07T12:14:05;1.20;;;1.20;;
4309;SDS011;2168;53.576;9.980;2023-05-07T12:16:30;0.90;;;0.90;;
4309;SDS011;2168;53.576;9.980;2023-05-07T12:18:55;1.00;;;1.00;;
4309;SDS011;2168;53.576;9.980;2023-05-07T12:21:21;1.07;;;1.07;;
4309;SDS011;2168;53.576;9.980;2023-05-07T12:23:46;1.07;;;1.07;;
4309;SDS011;2168;53.576;9.980;2023-05-07T12:26:12;1.10;;;1.10;;
4309;SDS011;2168;53.576;9.980;2023-05-07T12:28:38;1.20;;;1.20;;
4309;SDS011;2168;53.576;9.980;2023-05-07T12:31:03;1.10;;;1.10;;
4309;SDS011;2168;53.576;9.980;2023-05-07T12:33:29;1.13;;;1.13;;
4309;SDS011;2168;53.576;9.980;2023-05-07T12:35:56;1.00;;;1.00;;
4309;SDS011;2168;53.576;9.980;2023-05-07T12:38:22;1.00;;;1.00;;
4309;SDS011;2168;53.576;9.980;2023-05-07T12:40:47;1.00;;;1.00;;
4309;SDS011;2168;53.576;9.980;2023-05-07T12:43:19;1.27;;;1.27;;
4309;SDS011;2168;53.576;9.980;2023-05-07T12:45:45;1.17;;;1.17;;
4309;SDS011;2168;53.576;9.980;2023-05-07T12:48:11;1.10;;;1.10;;
4309;SDS011;2168;53.576;9.980;2023-05-07T12:50:36;1.27;;;1.27;;
4309;SDS011;2168;53.576;9.980;2023-05-07T12:53:05;1.10;;;1.10;;
4309;SDS011;2168;53.576;9.980;2023-05-07T12:55:31;1.20;;;1.20;;
4309;SDS011;2168;53.576;9.980;2023-05-07T12:58:00;1.20;;;1.20;;
4309;SDS011;2168;53.576;9.980;2023-05-07T13:00:32;1.30;;;1.30;;
4309;SDS011;2168;53.576;9.980;2023-05-07T13:02:58;1.30;;;1.30;;
4309;SDS011;2168;53.576;9.980;2023-05-07T13:05:23;1.20;;;1.20;;
4309;SDS011;2168;53.576;9.980;2023-05-07T13:07:55;1.20;;;1.20;;
4309;SDS011;2168;53.576;9.980;2023-05-07T13:10:21;1.10;;;1.10;;
4309;SDS011;2168;53.576;9.980;2023-05-07T13:12:46;1.30;;;1.30;;
4309;SDS011;2168;53.576;9.980;2023-05-07T13:15:11;1.40;;;1.40;;
4309;SDS011;2168;53.576;9.980;2023-05-07T13:17:36;1.23;;;1.23;;
4309;SDS011;2168;53.576;9.980;2023-05-07T13:20:01;1.30;;;1.30;;
4309;SDS011;2168;53.576;9.980;2023-05-07T13:22:27;1.20;;;1.20;;
4309;SDS011;2168;53.576;9.980;2023-05-07T13:24:52;1.50;;;1.50;;
4309;SDS011;2168;53.576;9.980;2023-05-07T13:27:17;1.53;;;1.53;;
4309;SDS011;2168;53.576;9.980;2023-05-07T13:29:44;1.40;;;1.40;;
4309;SDS011;2168;53.576;9.980;2023-05-07T13:32:09;1.60;;;1.60;;
4309;SDS011;2168;53.576;9.980;2023-05-07T13:34:34;1.60;;;1.60;;
4309;SDS011;2168;53.576;9.980;2023-05-07T13:37:00;1.30;;;1.30;;
4309;SDS011;2168;53.576;9.980;2023-05-07T13:39:25;1.70;;;1.70;;
4309;SDS011;2168;53.576;9.980;2023-05-07T13:41:51;1.80;;;1.80;;
4309;SDS011;2168;53.576;9.980;2023-05-07T13:44:16;1.70;;;1.70;;
4309;SDS011;2168;53.576;9.980;2023-05-07T13:46:41;1.77;;;1.77;;
4309;SDS011;2168;53.576;9.980;2023-05-07T13:49:06;1.67;;;1.67;;
4309;SDS011;2168;53.576;9.980;2023-05-07T13:51:32;1.80;;;1.80;;
4309;SDS011;2168;53.576;9.980;2023-05-07T13:53:57;1.80;;;1.80;;
4309;SDS011;2168;53.576;9.980;2023-05-07T13:56:23;2.00;;;2.00;;
4309;SDS011;2168;53.576;9.980;2023-05-07T13:58:48;1.90;;;1.90;;
4309;SDS011;2168;53.576;9.980;2023-05-07T14:01:13;1.70;;;1.70;;
4309;SDS011;2168;53.576;9.980;2023-05-07T14:03:39;1.70;;;1.70;;
4309;SDS011;2168;53.576;9.980;2023-05-07T14:06:04;2.00;;;2.00;;
4309;SDS011;2168;53.576;9.980;2023-05-07T14:08:30;2.10;;;2.10;;
4309;SDS011;2168;53.576;9.980;2023-05-07T14:10:55;2.10;;;2.10;;
4309;SDS011;2168;53.576;9.980;2023-05-07T14:13:20;2.00;;;2.00;;
4309;SDS011;2168;53.576;9.980;2023-05-07T14:15:45;1.90;;;1.90;;
4309;SDS011;2168;53.576;9.980;2023-05-07T14:18:15;1.90;;;1.90;;
4309;SDS011;2168;53.576;9.980;2023-05-07T14:20:40;2.10;;;2.10;;
4309;SDS011;2168;53.576;9.980;2023-05-07T14:23:05;2.00;;;2.00;;
4309;SDS011;2168;53.576;9.980;2023-05-07T14:25:31;1.90;;;1.90;;
4309;SDS011;2168;53.576;9.980;2023-05-07T14:27:56;2.10;;;2.10;;
4309;SDS011;2168;53.576;9.980;2023-05-07T14:30:21;2.10;;;2.10;;
4309;SDS011;2168;53.576;9.980;2023-05-07T14:32:49;2.40;;;2.40;;
4309;SDS011;2168;53.576;9.980;2023-05-07T14:35:14;2.43;;;2.43;;
4309;SDS011;2168;53.576;9.980;2023-05-07T14:37:40;2.40;;;2.40;;
4309;SDS011;2168;53.576;9.980;2023-05-07T14:40:05;2.40;;;2.40;;
4309;SDS011;2168;53.576;9.980;2023-05-07T14:42:31;2.50;;;2.50;;
4309;SDS011;2168;53.576;9.980;2023-05-07T14:44:56;2.70;;;2.70;;
4309;SDS011;2168;53.576;9.980;2023-05-07T14:47:21;2.40;;;2.40;;
4309;SDS011;2168;53.576;9.980;2023-05-07T14:49:46;2.60;;;2.60;;
4309;SDS011;2168;53.576;9.980;2023-05-07T14:52:11;2.20;;;2.20;;
4309;SDS011;2168;53.576;9.980;2023-05-07T14:54:37;2.20;;;2.20;;
4309;SDS011;2168;53.576;9.980;2023-05-07T14:57:02;2.10;;;2.10;;
4309;SDS011;2168;53.576;9.980;2023-05-07T14:59:28;2.40;;;2.40;;
4309;SDS011;2168;53.576;9.980;2023-05-07T15:01:53;2.60;;;2.60;;
4309;SDS011;2168;53.576;9.980;2023-05-07T15:04:18;2.23;;;2.23;;
4309;SDS011;2168;53.576;9.980;2023-05-07T15:06:44;2.77;;;2.77;;
4309;SDS011;2168;53.576;9.980;2023-05-07T15:09:09;2.23;;;2.23;;
4309;SDS011;2168;53.576;9.980;2023-05-07T15:11:34;3.00;;;3.00;;
4309;SDS011;2168;53.576;9.980;2023-05-07T15:13:59;2.70;;;2.70;;
4309;SDS011;2168;53.576;9.980;2023-05-07T15:16:25;3.00;;;3.00;;
4309;SDS011;2168;53.576;9.980;2023-05-07T15:18:50;3.20;;;3.20;;